Time;durP1;ratioP1;P1;durP2;ratioP2;P2;SDS_P1;SDS_P2;PMS_P1;PMS_P2;Temp;Humidity;BMP_temperature;BMP_pressure;BME280_temperature;BME280_humidity;BME280_pressure;Samples;Min_cycle;Max_cycle;Signal;HPM_P1;HPM_P2
2022/09/29 00:01:50;;;;;;;5.30;2.70;;;;;;;17.35;100.00;99163.91;5070616;28;20040;-73
2022/09/29 00:04:16;;;;;;;5.05;2.40;;;;;;;17.62;100.00;99186.91;5071062;28;20067;-73
2022/09/29 00:06:42;;;;;;;6.22;2.42;;;;;;;17.71;100.00;99168.25;5070951;28;20066;-74
2022/09/29 00:09:07;;;;;;;5.80;2.65;;;;;;;17.65;100.00;99209.03;5070764;28;20044;-73
2022/09/29 00:11:33;;;;;;;3.92;2.30;;;;;;;17.43;100.00;99180.56;5070640;28;20032;-73
2022/09/29 00:13:58;;;;;;;6.18;2.78;;;;;;;17.56;100.00;99189.09;5070678;28;20052;-72
2022/09/29 00:16:24;;;;;;;8.88;3.40;;;;;;;17.31;100.00;99149.63;5069342;28;20478;-73
2022/09/29 00:18:53;;;;;;;7.03;3.40;;;;;;;17.51;100.00;99215.09;5086138;28;20566;-74
2022/09/29 00:21:18;;;;;;;5.32;2.95;;;;;;;17.55;100.00;99221.66;5069145;28;20024;-74
2022/09/29 00:23:44;;;;;;;5.82;2.83;;;;;;;17.62;100.00;99220.34;5071085;28;20491;-73
2022/09/29 00:26:12;;;;;;;5.18;2.70;;;;;;;17.42;100.00;99222.59;5070621;28;20077;-75
2022/09/29 00:28:40;;;;;;;5.28;2.70;;;;;;;17.46;100.00;99222.28;5069323;28;20017;-73
2022/09/29 00:31:09;;;;;;;6.13;2.90;;;;;;;17.11;100.00;99175.84;5068994;28;20036;-74
2022/09/29 00:33:36;;;;;;;5.13;3.20;;;;;;;16.84;100.00;99126.34;5070521;28;20025;-72
2022/09/29 00:36:08;;;;;;;5.65;3.60;;;;;;;16.81;100.00;99159.94;5069290;28;20033;-72
2022/09/29 00:38:35;;;;;;;5.65;3.78;;;;;;;17.29;100.00;99223.41;5069137;28;20036;-72
2022/09/29 00:41:01;;;;;;;5.88;3.90;;;;;;;16.59;100.00;99146.88;5074111;28;20037;-72
2022/09/29 00:43:53;;;;;;;6.80;3.80;;;;;;;17.11;100.00;99206.66;5074355;28;20082;-73
2022/09/29 00:46:40;;;;;;;6.75;3.10;;;;;;;17.00;100.00;99218.56;5074222;28;20058;-72
2022/09/29 00:49:23;;;;;;;5.28;3.30;;;;;;;16.86;100.00;99218.66;5074253;28;20086;-72
2022/09/29 00:52:06;;;;;;;7.10;3.35;;;;;;;17.07;100.00;99201.84;5073629;28;20025;-73
2022/09/29 00:54:39;;;;;;;7.45;3.67;;;;;;;16.59;100.00;99164.84;5073810;28;20093;-74
2022/09/29 00:57:07;;;;;;;7.38;4.00;;;;;;;16.95;100.00;99205.22;5073469;28;20036;-73
2022/09/29 00:59:49;;;;;;;6.47;3.90;;;;;;;16.71;100.00;99151.19;5073528;28;20028;-72
2022/09/29 01:02:17;;;;;;;5.38;4.05;;;;;;;16.58;100.00;99170.88;5073781;28;20027;-73
2022/09/29 01:04:44;;;;;;;8.35;4.13;;;;;;;16.71;100.00;99178.59;5073520;28;20049;-76
2022/09/29 01:07:10;;;;;;;6.03;4.25;;;;;;;16.95;100.00;99221.47;5074031;28;20036;-72
2022/09/29 01:09:39;;;;;;;5.72;4.00;;;;;;;16.82;100.00;99210.34;5073956;28;20028;-72
2022/09/29 01:12:05;;;;;;;6.43;3.95;;;;;;;16.75;100.00;99149.25;5072222;28;20475;-72
2022/09/29 01:14:32;;;;;;;7.28;4.22;;;;;;;16.33;100.00;99104.94;5072286;28;20387;-73
2022/09/29 01:16:58;;;;;;;6.93;3.95;;;;;;;16.76;100.00;99161.97;5073638;28;20112;-72
2022/09/29 01:19:37;;;;;;;4.85;3.35;;;;;;;16.54;100.00;99143.78;5073486;28;20031;-72
2022/09/29 01:22:32;;;;;;;6.57;3.65;;;;;;;16.90;100.00;99215.81;5073542;28;20032;-73
2022/09/29 01:26:00;;;;;;;9.57;3.60;;;;;;;17.07;100.00;99219.84;5073678;28;20041;-72
2022/09/29 01:29:03;;;;;;;4.95;3.40;;;;;;;17.13;100.00;99222.78;5011250;28;20026;-72
2022/09/29 01:31:57;;;;;;;7.88;3.40;;;;;;;16.98;100.00;99223.81;4994744;28;20030;-73
2022/09/29 01:34:37;;;;;;;7.00;3.40;;;;;;;16.75;100.00;99223.69;5064027;28;20084;-72
2022/09/29 01:37:20;;;;;;;5.63;3.30;;;;;;;16.75;100.00;99221.13;5072862;28;20038;-73
2022/09/29 01:40:17;;;;;;;5.95;3.45;;;;;;;16.81;100.00;99218.97;5072118;28;20028;-73
2022/09/29 01:42:42;;;;;;;8.43;3.78;;;;;;;16.63;100.00;99211.66;5060711;28;20113;-72
2022/09/29 01:45:16;;;;;;;6.47;3.40;;;;;;;16.85;100.00;99192.19;5073151;28;20052;-73
2022/09/29 01:47:48;;;;;;;6.88;4.07;;;;;;;16.68;100.00;99212.19;5072015;28;20418;-73
2022/09/29 01:50:17;;;;;;;;;;;;;;;16.61;100.00;99206.63;5073293;28;20028;-72
2022/09/29 01:52:48;;;;;;;5.22;3.60;;;;;;;16.63;100.00;99201.38;5072331;28;20006;-72
2022/09/29 01:55:19;;;;;;;5.45;3.60;;;;;;;16.65;100.00;99196.97;5072499;28;20029;-73
2022/09/29 01:57:59;;;;;;;5.90;3.45;;;;;;;16.00;100.00;99135.31;5072723;28;20060;-73
2022/09/29 02:00:30;;;;;;;5.15;3.60;;;;;;;16.54;100.00;99171.19;5071678;28;20035;-73
2022/09/29 02:03:21;;;;;;;6.60;3.78;;;;;;;16.54;100.00;99197.66;5071367;28;20713;-74
2022/09/29 02:05:57;;;;;;;4.82;3.55;;;;;;;16.63;100.00;99201.38;5072521;28;20040;-73
2022/09/29 02:08:31;;;;;;;5.55;3.65;;;;;;;16.45;100.00;99214.47;5071837;28;20083;-72
2022/09/29 02:11:06;;;;;;;8.60;3.60;;;;;;;16.47;100.00;99212.63;5071465;28;20032;-73
2022/09/29 02:13:38;;;;;;;6.57;3.80;;;;;;;16.27;100.00;99158.38;5072595;28;20075;-74
2022/09/29 02:16:10;;;;;;;7.65;3.88;;;;;;;16.37;100.00;99201.31;5072706;28;20032;-75
2022/09/29 02:18:53;;;;;;;12.00;4.18;;;;;;;16.04;100.00;99167.53;5071478;28;20067;-75
2022/09/29 02:21:20;;;;;;;7.38;3.88;;;;;;;16.19;100.00;99199.06;5072402;28;20082;-75
2022/09/29 02:23:46;;;;;;;8.55;4.40;;;;;;;16.20;100.00;99203.28;5072392;28;20048;-74
2022/09/29 02:26:11;;;;;;;6.25;4.18;;;;;;;15.54;100.00;99105.81;5072119;28;20036;-76
2022/09/29 02:28:38;;;;;;;8.40;3.78;;;;;;;15.76;100.00;99151.41;5072548;28;20111;-72
2022/09/29 02:31:04;;;;;;;8.20;4.10;;;;;;;15.86;100.00;99155.06;5070754;28;20047;-74
2022/09/29 02:33:29;;;;;;;7.63;3.85;;;;;;;16.16;100.00;99205.22;5071045;28;20414;-73
2022/09/29 02:36:00;;;;;;;8.05;3.78;;;;;;;15.92;100.00;99205.94;5072540;28;20028;-72
2022/09/29 02:38:40;;;;;;;6.53;3.47;;;;;;;15.73;100.00;99187.50;5070713;28;20151;-72
2022/09/29 02:41:34;;;;;;;7.55;3.63;;;;;;;16.20;100.00;99200.72;5071003;28;20032;-74
2022/09/29 02:44:14;;;;;;;5.38;3.20;;;;;;;16.11;100.00;99211.56;5070678;28;20032;-72
2022/09/29 02:47:18;;;;;;;6.28;3.35;;;;;;;16.39;100.00;99211.44;5071277;28;20115;-74
2022/09/29 02:50:16;;;;;;;6.50;3.97;;;;;;;16.01;100.00;99207.91;5070820;28;20034;-74
2022/09/29 02:52:45;;;;;;;8.93;3.83;;;;;;;15.85;100.00;99214.91;5070667;28;20032;-74
2022/09/29 02:55:34;;;;;;;6.95;3.25;;;;;;;15.99;100.00;99212.31;5071241;28;20082;-74
2022/09/29 02:58:09;;;;;;;6.18;3.55;;;;;;;15.85;100.00;99191.84;5072185;28;20020;-74
2022/09/29 03:00:35;;;;;;;7.93;3.72;;;;;;;15.84;100.00;99157.72;5071966;28;20040;-75
2022/09/29 03:03:00;;;;;;;4.88;3.47;;;;;;;16.16;100.00;99205.22;5069630;28;20040;-75
2022/09/29 03:05:26;;;;;;;6.95;3.60;;;;;;;15.76;100.00;99166.78;5065043;28;20028;-75
2022/09/29 03:07:52;;;;;;;6.05;3.67;;;;;;;15.79;100.00;99179.41;5052353;28;20031;-74
2022/09/29 03:10:18;;;;;;;7.28;3.97;;;;;;;15.86;100.00;99208.88;5070013;28;20513;-75
2022/09/29 03:12:45;;;;;;;8.65;4.13;;;;;;;16.10;100.00;99227.88;5069237;28;20036;-73
2022/09/29 03:15:11;;;;;;;5.55;4.20;;;;;;;15.94;100.00;99194.69;5071227;28;20397;-73
2022/09/29 03:17:37;;;;;;;6.40;3.70;;;;;;;16.06;100.00;99217.00;5066718;28;20036;-76
2022/09/29 03:20:04;;;;;;;6.63;3.38;;;;;;;17.36;100.00;99216.13;5071133;28;20032;-72
2022/09/29 03:22:29;;;;;;;7.65;4.40;;;;;;;16.87;100.00;99167.22;5071483;28;20093;-74
2022/09/29 03:24:58;;;;;;;8.38;4.20;;;;;;;16.22;100.00;99220.22;5071679;28;20044;-72
2022/09/29 03:27:23;;;;;;;8.00;3.92;;;;;;;16.10;100.00;99192.78;5071288;28;20024;-72
2022/09/29 03:29:49;;;;;;;7.85;4.20;;;;;;;15.94;100.00;99228.00;5070165;28;20089;-73
2022/09/29 03:32:16;;;;;;;8.27;3.60;;;;;;;16.14;100.00;99229.31;5058730;28;20036;-71
2022/09/29 03:34:42;;;;;;;6.25;3.72;;;;;;;15.88;100.00;99237.81;5070812;28;20031;-72
2022/09/29 03:37:07;;;;;;;7.60;3.90;;;;;;;15.49;100.00;99147.06;5070814;28;20399;-72
2022/09/29 03:39:32;;;;;;;6.93;4.10;;;;;;;15.85;100.00;99217.47;5068594;28;20028;-76
2022/09/29 03:41:59;;;;;;;10.30;3.78;;;;;;;15.73;100.00;99172.13;5069514;28;20173;-71
2022/09/29 03:44:24;;;;;;;9.27;4.07;;;;;;;15.88;100.00;99235.25;5070976;28;20024;-73
2022/09/29 03:46:50;;;;;;;5.82;3.95;;;;;;;16.14;100.00;99221.63;5070512;28;20043;-72
2022/09/29 03:49:15;;;;;;;7.85;4.00;;;;;;;15.92;100.00;99231.56;5070338;28;20040;-72
2022/09/29 03:51:41;;;;;;;12.15;4.40;;;;;;;15.17;100.00;99183.22;5070370;28;20035;-72
2022/09/29 03:54:07;;;;;;;8.13;4.32;;;;;;;15.50;100.00;99182.03;5070837;28;20564;-72
2022/09/29 03:56:33;;;;;;;5.80;3.90;;;;;;;15.35;100.00;99202.59;5070572;28;20029;-73
2022/09/29 03:58:59;;;;;;;8.52;4.20;;;;;;;15.17;100.00;99173.75;5070739;28;20479;-73
2022/09/29 04:01:25;;;;;;;7.78;4.00;;;;;;;15.26;100.00;99185.22;5070152;28;20086;-74
2022/09/29 04:03:50;;;;;;;7.07;4.30;;;;;;;15.27;100.00;99197.91;5070382;28;20437;-74
2022/09/29 04:06:16;;;;;;;8.40;4.10;;;;;;;16.15;100.00;99272.81;5069015;28;20037;-75
2022/09/29 04:08:41;;;;;;;6.88;4.03;;;;;;;16.22;100.00;99256.13;5069583;28;20052;-74
2022/09/29 04:11:07;;;;;;;10.20;4.63;;;;;;;15.57;100.00;99200.41;5069520;28;20025;-73
2022/09/29 04:13:33;;;;;;;12.88;4.25;;;;;;;15.98;100.00;99257.66;5069672;28;20546;-73
2022/09/29 04:16:04;;;;;;;7.45;3.90;;;;;;;15.72;100.00;99201.22;5075056;28;20402;-72
2022/09/29 04:18:30;;;;;;;12.00;4.32;;;;;;;16.10;100.00;99248.38;5073908;28;20056;-72
2022/09/29 04:20:59;;;;;;;6.18;3.97;;;;;;;16.55;100.00;99262.66;5074708;28;20519;-74
2022/09/29 04:23:29;;;;;;;9.18;4.32;;;;;;;16.08;100.00;99215.16;5073914;28;20032;-73
2022/09/29 04:25:55;;;;;;;9.10;3.92;;;;;;;16.32;100.00;99210.22;5072743;28;20028;-73
2022/09/29 04:28:20;;;;;;;6.43;4.28;;;;;;;16.51;100.00;99261.19;5074195;28;20478;-72
2022/09/29 04:30:46;;;;;;;9.18;4.35;;;;;;;15.98;100.00;99190.19;5074465;28;20064;-75
2022/09/29 04:33:11;;;;;;;12.88;4.65;;;;;;;16.67;100.00;99256.72;5075810;28;20032;-71
2022/09/29 04:35:37;;;;;;;9.20;4.60;;;;;;;16.65;100.00;99251.72;5072718;28;20123;-72
2022/09/29 04:38:03;;;;;;;9.32;4.50;;;;;;;16.14;100.00;99183.97;5072209;28;20060;-71
2022/09/29 04:40:28;;;;;;;12.48;4.80;;;;;;;16.63;100.00;99180.84;5073037;28;20431;-72
2022/09/29 04:42:53;;;;;;;7.07;4.43;;;;;;;16.68;100.00;99251.50;5072924;28;20048;-72
2022/09/29 04:45:19;;;;;;;10.45;4.75;;;;;;;17.02;100.00;99250.94;5072584;28;20029;-73
2022/09/29 04:47:44;;;;;;;11.45;4.70;;;;;;;17.13;100.00;99257.94;5072419;28;20032;-73
2022/09/29 04:50:10;;;;;;;8.70;4.88;;;;;;;16.60;100.00;99186.19;5073105;28;20047;-73
2022/09/29 04:52:35;;;;;;;11.57;5.13;;;;;;;17.12;100.00;99261.44;5072664;28;20032;-73
2022/09/29 04:55:03;;;;;;;8.80;4.30;;;;;;;16.54;100.00;99189.16;5073126;28;20032;-72
2022/09/29 04:57:28;;;;;;;7.95;4.18;;;;;;;17.15;100.00;99262.03;5072554;28;20043;-75
2022/09/29 04:59:54;;;;;;;9.25;4.43;;;;;;;17.06;100.00;99215.59;5072531;28;20025;-73
2022/09/29 05:02:20;;;;;;;11.88;5.65;;;;;;;17.14;100.00;99233.91;5072853;28;20029;-72
2022/09/29 05:04:46;;;;;;;13.88;5.88;;;;;;;16.95;100.00;99218.06;5073196;28;20028;-73
2022/09/29 05:07:12;;;;;;;11.55;5.30;;;;;;;16.87;100.00;99210.06;5071678;28;20499;-73
2022/09/29 05:09:38;;;;;;;11.13;6.00;;;;;;;17.21;100.00;99266.78;5073304;28;20039;-73
2022/09/29 05:12:03;;;;;;;13.18;6.47;;;;;;;16.99;100.00;99264.00;5072656;28;20032;-73
2022/09/29 05:14:28;;;;;;;12.88;6.53;;;;;;;16.81;100.00;99224.13;5073615;28;20060;-74
2022/09/29 05:16:54;;;;;;;17.67;6.63;;;;;;;16.72;100.00;99226.47;5072473;28;20032;-73
2022/09/29 05:19:20;;;;;;;12.73;6.00;;;;;;;17.43;100.00;99262.78;5072468;28;20487;-74
2022/09/29 05:21:45;;;;;;;14.65;5.88;;;;;;;17.41;100.00;99259.50;5073807;28;20081;-72
2022/09/29 05:24:11;;;;;;;12.20;6.13;;;;;;;17.67;100.00;99220.81;5073131;28;20057;-73
2022/09/29 05:26:37;;;;;;;21.75;6.55;;;;;;;17.82;100.00;99278.94;5071920;28;20039;-72
2022/09/29 05:29:02;;;;;;;12.75;5.95;;;;;;;18.20;100.00;99281.41;5073297;28;20028;-73
2022/09/29 05:31:28;;;;;;;9.65;5.10;;;;;;;17.94;100.00;99251.53;5071591;28;20031;-73
2022/09/29 05:33:55;;;;;;;13.70;4.75;;;;;;;17.87;100.00;99260.59;5073053;28;20115;-73
2022/09/29 05:36:21;;;;;;;10.40;5.15;;;;;;;17.92;100.00;99302.25;5071857;28;20073;-72
2022/09/29 05:38:46;;;;;;;14.70;5.13;;;;;;;17.76;100.00;99237.38;5072913;28;20149;-72
2022/09/29 05:41:12;;;;;;;11.63;5.93;;;;;;;18.19;100.00;99284.91;5071940;28;20447;-74
2022/09/29 05:43:39;;;;;;;12.15;5.95;;;;;;;18.03;100.00;99286.91;5072847;28;20032;-73
2022/09/29 05:46:07;;;;;;;12.48;6.63;;;;;;;17.33;100.00;99236.91;5071631;28;20032;-72
2022/09/29 05:48:33;;;;;;;12.45;6.60;;;;;;;17.74;100.00;99272.66;5072734;28;20449;-72
2022/09/29 05:51:05;;;;;;;15.20;6.93;;;;;;;17.90;100.00;99238.06;5071632;28;20062;-73
2022/09/29 05:53:30;;;;;;;15.18;7.30;;;;;;;18.41;100.00;99286.78;5072822;28;20115;-72
2022/09/29 05:55:56;;;;;;;12.00;6.10;;;;;;;18.60;100.00;99241.59;5071175;28;20120;-71
2022/09/29 05:58:21;;;;;;;10.05;5.43;;;;;;;18.65;100.00;99236.97;5072714;28;20040;-72
2022/09/29 06:00:47;;;;;;;10.75;4.72;;;;;;;19.47;100.00;99288.34;5071062;28;20029;-74
2022/09/29 06:03:12;;;;;;;9.95;4.20;;;;;;;19.15;100.00;99240.97;5072516;28;20147;-76
2022/09/29 06:05:38;;;;;;;6.50;4.40;;;;;;;19.55;100.00;99288.59;5072439;28;20033;-71
2022/09/29 06:08:04;;;;;;;10.15;4.25;;;;;;;19.66;100.00;99267.16;5072348;28;20035;-72
2022/09/29 06:10:30;;;;;;;8.85;4.15;;;;;;;19.90;100.00;99309.13;5072106;28;20021;-72
2022/09/29 06:12:55;;;;;;;6.95;4.15;;;;;;;19.55;100.00;99249.13;5071138;28;20028;-73
2022/09/29 06:15:21;;;;;;;8.65;3.90;;;;;;;19.72;100.00;99284.75;5072158;28;20036;-72
2022/09/29 06:17:47;;;;;;;6.53;4.13;;;;;;;20.13;100.00;99248.81;5072320;28;20124;-73
2022/09/29 06:20:12;;;;;;;7.97;4.50;;;;;;;20.60;100.00;99248.44;5072518;28;20039;-74
2022/09/29 06:22:38;;;;;;;6.18;4.05;;;;;;;20.94;100.00;99302.56;5072714;28;20043;-73
2022/09/29 06:25:03;;;;;;;9.55;3.83;;;;;;;20.68;100.00;99216.81;5072588;28;20585;-72
2022/09/29 06:27:29;;;;;;;6.93;3.63;;;;;;;20.67;100.00;99247.03;5071628;28;20032;-73
2022/09/29 06:29:54;;;;;;;7.68;4.10;;;;;;;20.19;100.00;99258.69;5071959;28;20502;-72
2022/09/29 06:32:20;;;;;;;9.68;4.35;;;;;;;20.28;100.00;99247.59;5070819;28;20063;-72
2022/09/29 06:37:35;;;;;;;7.82;4.45;;;;;;;21.81;100.00;99295.22;5070977;28;20039;-72
2022/09/29 06:40:02;;;;;;;;;;;;;;;21.56;100.00;99301.63;5071231;28;20051;-72
2022/09/29 06:42:27;;;;;;;9.68;3.88;;;;;;;21.24;100.00;99271.63;5069553;28;19912;-71
2022/09/29 06:44:53;;;;;;;7.57;3.90;;;;;;;21.53;100.00;99301.09;5071109;28;20636;-72
2022/09/29 06:47:19;;;;;;;6.43;3.92;;;;;;;21.71;100.00;99215.91;5071345;28;20036;-73
2022/09/29 06:49:44;;;;;;;8.05;4.32;;;;;;;21.87;100.00;99231.78;5070323;28;20028;-72
2022/09/29 06:52:10;;;;;;;11.43;4.82;;;;;;;21.93;100.00;99254.53;5071787;28;20046;-73
2022/09/29 06:54:35;;;;;;;8.68;4.82;;;;;;;22.01;100.00;99239.97;5087014;28;20028;-73
2022/09/29 06:57:01;;;;;;;9.20;4.43;;;;;;;22.79;100.00;99301.31;5069666;28;20036;-72
2022/09/29 06:59:26;;;;;;;7.93;3.50;;;;;;;22.53;100.00;99300.19;5069864;28;20044;-73
2022/09/29 07:01:51;;;;;;;5.47;3.05;;;;;;;22.38;100.00;99235.78;5070096;28;20043;-74
2022/09/29 07:04:18;;;;;;;5.88;3.03;;;;;;;22.40;100.00;99287.50;5071691;28;20479;-76
2022/09/29 07:06:44;;;;;;;7.95;3.30;;;;;;;23.08;100.00;99287.38;5070886;28;20119;-72
2022/09/29 07:09:14;;;;;;;8.75;3.25;;;;;;;23.13;100.00;99271.41;5069924;28;20059;-72
2022/09/29 07:11:40;;;;;;;7.85;3.33;;;;;;;22.73;100.00;99296.69;5070073;28;20442;-72
2022/09/29 07:14:05;;;;;;;6.45;3.20;;;;;;;22.36;100.00;99219.56;5071065;28;20047;-71
2022/09/29 07:16:31;;;;;;;4.82;2.83;;;;;;;23.00;100.00;99304.56;5069969;28;20510;-71
2022/09/29 07:18:59;;;;;;;6.72;3.10;;;;;;;22.78;100.00;99268.59;5069743;28;20032;-72
2022/09/29 07:21:24;;;;;;;7.68;2.70;;;;;;;23.60;100.00;99265.28;5071398;28;20028;-71
2022/09/29 07:23:49;;;;;;;6.88;2.95;;;;;;;23.45;100.00;99304.81;5069336;28;20562;-73
2022/09/29 07:26:15;;;;;;;6.82;3.22;;;;;;;23.50;100.00;99290.47;5070631;28;20032;-73
2022/09/29 07:28:41;;;;;;;6.45;2.72;;;;;;;23.96;100.00;99290.41;5069312;28;20028;-73
2022/09/29 07:31:10;;;;;;;6.75;2.60;;;;;;;23.65;100.00;99264.88;5070674;28;20029;-73
2022/09/29 07:33:35;;;;;;;6.18;2.63;;;;;;;24.08;100.00;99262.50;5070881;28;20025;-72
2022/09/29 07:36:01;;;;;;;5.35;2.80;;;;;;;24.57;100.00;99301.00;5071088;28;20495;-73
2022/09/29 07:38:28;;;;;;;4.95;2.60;;;;;;;24.55;100.00;99265.72;5086159;28;20119;-72
2022/09/29 07:40:53;;;;;;;4.88;2.70;;;;;;;24.23;100.00;99242.00;5069271;28;20079;-72
2022/09/29 07:43:19;;;;;;;5.30;2.75;;;;;;;24.28;100.00;99268.38;5069563;28;20495;-72
2022/09/29 07:45:49;;;;;;;6.70;2.55;;;;;;;24.14;100.00;99258.47;5069635;28;20032;-72
2022/09/29 07:48:15;;;;;;;5.90;2.97;;;;;;;24.30;100.00;99300.25;5070496;28;20107;-71
2022/09/29 07:50:41;;;;;;;5.60;2.92;;;;;;;25.51;100.00;99296.91;5069956;28;20116;-73
2022/09/29 07:53:06;;;;;;;7.10;3.00;;;;;;;24.97;100.00;99295.38;5069468;28;20094;-73
2022/09/29 07:55:32;;;;;;;6.43;2.95;;;;;;;24.55;100.00;99276.13;5069689;28;20040;-73
2022/09/29 07:57:57;;;;;;;5.63;2.85;;;;;;;24.86;100.00;99262.59;5070915;28;20111;-73
2022/09/29 08:00:23;;;;;;;6.32;2.90;;;;;;;24.90;100.00;99299.53;5069595;28;20490;-73
2022/09/29 08:02:48;;;;;;;6.15;2.50;;;;;;;25.28;100.00;99298.34;5069957;28;20033;-72
2022/09/29 08:05:14;;;;;;;6.55;2.80;;;;;;;25.00;100.00;99271.66;5069291;28;20024;-73
2022/09/29 08:07:39;;;;;;;6.60;3.15;;;;;;;25.63;100.00;99316.53;5070465;28;20032;-75
2022/09/29 08:10:05;;;;;;;13.80;3.30;;;;;;;25.55;100.00;99316.47;5069784;28;20036;-75
2022/09/29 08:12:31;;;;;;;7.85;2.70;;;;;;;25.36;100.00;99272.38;5070964;28;20107;-74
2022/09/29 08:14:56;;;;;;;9.52;2.85;;;;;;;25.63;100.00;99309.50;5069435;28;20047;-73
2022/09/29 08:17:22;;;;;;;9.25;2.90;;;;;;;25.92;100.00;99322.19;5070510;28;20020;-74
2022/09/29 08:19:47;;;;;;;7.28;2.95;;;;;;;25.78;100.00;99271.50;5069310;28;20032;-73
2022/09/29 08:22:13;;;;;;;5.25;3.00;;;;;;;26.23;100.00;99309.47;5070556;28;20040;-73
2022/09/29 08:24:39;;;;;;;6.57;2.97;;;;;;;25.90;100.00;99274.63;5070212;28;20052;-73
2022/09/29 08:27:05;;;;;;;6.07;3.00;;;;;;;26.42;100.00;99315.22;5070326;28;20024;-72
2022/09/29 08:29:32;;;;;;;8.05;3.55;;;;;;;26.73;100.00;99319.88;5069019;28;20043;-73
2022/09/29 08:31:57;;;;;;;7.85;3.38;;;;;;;25.76;100.00;99238.75;5070644;28;20028;-73
2022/09/29 08:34:23;;;;;;;8.60;3.17;;;;;;;25.96;100.00;99320.91;5070417;28;20020;-73
2022/09/29 08:36:48;;;;;;;6.55;3.33;;;;;;;26.42;100.00;99280.50;5070442;28;20032;-74
2022/09/29 08:39:14;;;;;;;7.38;3.10;;;;;;;26.24;100.00;99287.63;5070389;28;20098;-73
2022/09/29 08:42:06;;;;;;;6.05;3.10;;;;;;;26.47;100.00;99322.56;5069020;28;20028;-72
2022/09/29 08:44:42;;;;;;;11.82;3.30;;;;;;;27.69;100.00;99335.47;5070309;28;20521;-72
2022/09/29 08:47:15;;;;;;;8.07;3.03;;;;;;;26.51;100.00;99259.50;5070028;28;20041;-73
2022/09/29 08:50:03;;;;;;;7.72;3.55;;;;;;;26.85;100.00;99314.19;5070333;28;20040;-73
2022/09/29 08:52:33;;;;;;;6.60;3.35;;;;;;;27.22;100.00;99309.25;5068841;28;20056;-71
2022/09/29 08:55:26;;;;;;;8.82;3.50;;;;;;;26.62;100.00;99266.19;5070357;28;20511;-72
2022/09/29 08:57:57;;;;;;;7.68;3.47;;;;;;;26.69;100.00;99302.88;5068859;28;20078;-72
2022/09/29 09:00:37;;;;;;;9.73;3.40;;;;;;;26.32;100.00;99269.41;5070550;28;20047;-73
2022/09/29 09:03:36;;;;;;;8.25;3.40;;;;;;;26.47;100.00;99279.06;5073736;28;20128;-72
2022/09/29 09:06:08;;;;;;;9.93;3.72;;;;;;;27.41;100.00;99327.22;5041896;28;20040;-72
2022/09/29 09:08:55;;;;;;;7.13;3.50;;;;;;;28.25;100.00;99316.19;5073361;28;20455;-72
2022/09/29 09:11:40;;;;;;;5.65;3.30;;;;;;;27.62;100.00;99271.00;5052562;28;20055;-73
2022/09/29 09:14:24;;;;;;;5.35;3.15;;;;;;;27.53;100.00;99322.47;5054657;28;20115;-73
2022/09/29 09:17:15;;;;;;;8.98;3.58;;;;;;;27.10;100.00;99313.19;5068975;28;20124;-74
2022/09/29 09:19:59;;;;;;;10.30;3.80;;;;;;;26.60;100.00;99309.88;5053853;28;20060;-75
2022/09/29 09:22:48;;;;;;;7.45;3.42;;;;;;;27.32;100.00;99309.09;5082461;28;20475;-74
2022/09/29 09:25:46;;;;;;;9.93;3.50;;;;;;;27.76;100.00;99312.94;5092211;28;20135;-75
2022/09/29 09:28:26;;;;;;;7.68;3.72;;;;;;;28.14;100.00;99308.72;5081558;28;20574;-74
2022/09/29 09:30:54;;;;;;;10.30;3.67;;;;;;;28.51;100.00;99303.59;5091922;28;20169;-73
2022/09/29 09:33:38;;;;;;;7.55;3.90;;;;;;;27.49;100.00;99296.84;5108977;28;20032;-72
2022/09/29 09:36:17;;;;;;;10.98;3.88;;;;;;;28.09;100.00;99313.63;5087729;28;20036;-72
2022/09/29 09:38:55;;;;;;;7.00;3.70;;;;;;;27.90;100.00;99303.56;5073196;28;20172;-73
2022/09/29 09:41:23;;;;;;;6.32;3.80;;;;;;;28.30;100.00;99287.72;5071732;28;20044;-73
2022/09/29 09:43:55;;;;;;;8.32;4.20;;;;;;;28.24;100.00;99268.31;5073104;28;20074;-73
2022/09/29 09:46:26;;;;;;;8.75;4.45;;;;;;;28.41;100.00;99300.41;5088552;28;20032;-73
2022/09/29 09:49:10;;;;;;;;;;;;;;;28.34;100.00;99298.66;5088761;28;20028;-73
2022/09/29 09:51:43;;;;;;;9.38;4.00;;;;;;;28.58;100.00;99293.28;5088579;28;19908;-75
2022/09/29 09:54:14;;;;;;;7.40;3.55;;;;;;;28.38;100.00;99289.47;5072821;28;20545;-74
2022/09/29 09:56:59;;;;;;;8.63;4.22;;;;;;;27.57;100.00;99304.66;5071513;28;20063;-74
2022/09/29 10:00:03;;;;;;;9.20;4.10;;;;;;;28.75;100.00;99295.63;5088384;28;20559;-74
2022/09/29 10:02:29;;;;;;;7.07;4.28;;;;;;;28.46;100.00;99256.22;5011007;28;20030;-74
2022/09/29 10:04:55;;;;;;;7.50;3.70;;;;;;;28.65;100.00;99242.69;4994844;28;20064;-74
2022/09/29 10:07:24;;;;;;;8.65;3.60;;;;;;;28.45;100.00;99223.19;5029456;28;20044;-73
2022/09/29 10:09:49;;;;;;;8.60;3.97;;;;;;;29.75;100.00;99292.56;5072777;28;20032;-74
2022/09/29 10:12:20;;;;;;;8.40;3.85;;;;;;;29.50;100.00;99292.97;5072372;28;20033;-74
2022/09/29 10:15:00;;;;;;;10.65;4.07;;;;;;;28.72;100.00;99245.44;5071380;28;20067;-74
2022/09/29 10:17:32;;;;;;;9.57;4.00;;;;;;;28.14;100.00;99238.94;5072396;28;20036;-74
2022/09/29 10:19:58;;;;;;;7.45;4.10;;;;;;;29.56;100.00;99281.78;5072983;28;20078;-74
2022/09/29 10:22:26;;;;;;;9.13;3.90;;;;;;;29.29;100.00;99240.50;5071522;28;20055;-74
2022/09/29 10:24:56;;;;;;;7.15;3.50;;;;;;;29.16;100.00;99269.13;5072198;28;20056;-74
2022/09/29 10:27:27;;;;;;;7.97;3.90;;;;;;;28.76;100.00;99265.81;5072161;28;20032;-76
2022/09/29 10:29:53;;;;;;;7.45;3.60;;;;;;;28.53;100.00;99173.41;5071079;28;20490;-74
2022/09/29 10:32:26;;;;;;;7.80;3.65;;;;;;;28.50;100.00;99257.50;5071272;28;20112;-74
2022/09/29 10:35:01;;;;;;;8.07;3.80;;;;;;;29.24;100.00;99206.19;5072229;28;20038;-74
2022/09/29 10:37:34;;;;;;;10.80;4.18;;;;;;;28.46;100.00;99193.44;5072455;28;20115;-74
2022/09/29 10:40:11;;;;;;;7.15;3.90;;;;;;;28.33;100.00;99250.75;5070839;28;20450;-73
2022/09/29 10:42:39;;;;;;;9.07;4.10;;;;;;;28.36;100.00;99231.28;5072333;28;20033;-74
2022/09/29 10:45:15;;;;;;;7.45;3.40;;;;;;;28.58;100.00;99239.16;5072449;28;20032;-75
2022/09/29 10:48:07;;;;;;;7.50;4.10;;;;;;;28.51;100.00;99232.97;5072451;28;20048;-74
2022/09/29 10:50:36;;;;;;;6.78;4.18;;;;;;;28.23;100.00;99230.06;5071482;28;20037;-74
2022/09/29 10:53:18;;;;;;;10.10;4.05;;;;;;;27.90;100.00;99178.09;5070729;28;20036;-74
2022/09/29 10:55:50;;;;;;;9.00;4.05;;;;;;;28.62;100.00;99206.44;5070444;28;20115;-75
2022/09/29 10:58:27;;;;;;;9.13;4.40;;;;;;;28.52;100.00;99191.91;5071634;28;20056;-73
2022/09/29 11:01:11;;;;;;;8.13;3.85;;;;;;;27.98;100.00;99212.06;5069972;28;20035;-75
2022/09/29 11:03:39;;;;;;;9.95;4.05;;;;;;;27.85;100.00;99165.53;5087255;28;20411;-74
2022/09/29 11:06:11;;;;;;;7.93;4.10;;;;;;;28.17;100.00;99219.47;5071848;28;20039;-80
2022/09/29 11:08:57;;;;;;;9.85;4.57;;;;;;;28.43;100.00;99219.94;5071555;28;20028;-74
2022/09/29 11:11:45;;;;;;;8.45;4.00;;;;;;;28.16;100.00;99213.44;5071691;28;20028;-74
2022/09/29 11:14:23;;;;;;;10.85;4.10;;;;;;;27.85;100.00;99209.19;5076527;28;20032;-73
2022/09/29 11:16:54;;;;;;;8.18;3.78;;;;;;;27.86;100.00;99168.97;5071900;28;20056;-74
2022/09/29 11:19:20;;;;;;;9.27;4.32;;;;;;;27.73;100.00;99168.75;5071577;28;20039;-74
2022/09/29 11:22:20;;;;;;;10.00;4.22;;;;;;;27.66;100.00;99154.72;5069789;28;20028;-75
2022/09/29 11:24:57;;;;;;;8.52;4.30;;;;;;;28.13;100.00;99207.72;5069517;28;20495;-74
2022/09/29 11:27:23;;;;;;;7.72;4.00;;;;;;;27.70;100.00;99213.50;5086599;28;20495;-74
2022/09/29 11:30:09;;;;;;;8.88;3.92;;;;;;;27.95;100.00;99158.31;5087164;28;20039;-74
2022/09/29 11:32:48;;;;;;;10.20;4.03;;;;;;;28.16;100.00;99223.06;5070231;28;20131;-74
2022/09/29 11:35:29;;;;;;;7.28;3.72;;;;;;;28.26;100.00;99218.44;5087031;28;20033;-74
2022/09/29 11:38:15;;;;;;;7.90;3.88;;;;;;;28.66;100.00;99215.53;5071575;28;20391;-76
2022/09/29 11:41:13;;;;;;;9.65;3.90;;;;;;;28.47;100.00;99215.16;5069971;28;20044;-74
2022/09/29 11:43:53;;;;;;;10.05;4.13;;;;;;;28.75;100.00;99211.84;5071500;28;20063;-74
2022/09/29 11:46:33;;;;;;;9.95;3.78;;;;;;;28.43;100.00;99206.84;5069973;28;20117;-74